createdAt,value
2023-03-22T00:00:00.580Z,26.7
2023-03-22T00:01:08.754Z,26.7
2023-03-22T00:02:00.545Z,26.7
2023-03-22T00:03:00.777Z,26.7
2023-03-22T00:04:00.592Z,25.9
2023-03-22T00:05:00.644Z,25.9
2023-03-22T00:06:00.558Z,25.9
2023-03-22T00:07:00.560Z,25.9
2023-03-22T00:08:00.649Z,25.9
2023-03-22T00:09:00.557Z,26.7
2023-03-22T00:10:00.570Z,26.7
2023-03-22T00:11:00.749Z,26.7
2023-03-22T00:12:00.535Z,26.7
2023-03-22T00:13:00.815Z,26.7
2023-03-22T00:14:00.547Z,25.8
2023-03-22T00:15:00.544Z,25.8
2023-03-22T00:16:00.748Z,25.8
2023-03-22T00:17:00.561Z,25.8
2023-03-22T00:18:01.481Z,25.8
2023-03-22T00:19:00.561Z,26.7
2023-03-22T00:20:00.563Z,26.7
2023-03-22T00:21:00.587Z,26.7
2023-03-22T00:22:00.926Z,26.7
2023-03-22T00:23:00.516Z,26.7
2023-03-22T00:24:00.561Z,27.3
2023-03-22T00:25:00.541Z,27.3
2023-03-22T00:26:00.551Z,27.3
2023-03-22T00:27:00.559Z,27.3
2023-03-22T00:28:00.556Z,27.3
2023-03-22T00:29:00.549Z,27.3
2023-03-22T00:30:01.022Z,27.3
2023-03-22T00:31:01.665Z,27.3
2023-03-22T00:32:00.631Z,27.3
2023-03-22T00:33:00.652Z,27.3
2023-03-22T00:34:00.549Z,27.0
2023-03-22T00:35:00.741Z,27.0
2023-03-22T00:36:04.842Z,27.0
2023-03-22T00:37:00.515Z,27.0
2023-03-22T00:38:00.570Z,27.0
2023-03-22T00:39:00.564Z,27.9
2023-03-22T00:40:00.575Z,27.9
2023-03-22T00:41:10.483Z,27.9
2023-03-22T00:42:03.106Z,27.9
2023-03-22T00:43:00.534Z,27.9
2023-03-22T00:44:00.546Z,27.6
2023-03-22T00:45:00.812Z,27.6
2023-03-22T00:46:00.743Z,27.6
2023-03-22T00:47:00.842Z,27.6
2023-03-22T00:48:00.894Z,27.6
2023-03-22T00:49:00.522Z,27.0
2023-03-22T00:50:00.984Z,27.0
2023-03-22T00:51:00.624Z,27.0
2023-03-22T00:52:00.622Z,27.0
2023-03-22T00:53:00.713Z,27.0
2023-03-22T00:54:00.571Z,28.1
2023-03-22T00:55:00.659Z,28.1
2023-03-22T00:56:01.178Z,28.1
2023-03-22T00:57:00.536Z,28.1
2023-03-22T00:58:00.542Z,28.1
2023-03-22T00:59:00.565Z,26.8
2023-03-22T01:00:00.642Z,26.8
2023-03-22T01:01:00.645Z,26.8
2023-03-22T01:02:00.564Z,26.8
2023-03-22T01:03:00.861Z,26.8
2023-03-22T01:04:00.674Z,27.5
2023-03-22T01:05:00.569Z,27.5
2023-03-22T01:06:00.538Z,27.5
2023-03-22T01:07:01.276Z,27.5
2023-03-22T01:08:02.078Z,27.5
2023-03-22T01:09:00.883Z,28.0
2023-03-22T01:10:00.521Z,28.0
2023-03-22T01:11:00.549Z,28.0
2023-03-22T01:12:01.073Z,28.0
2023-03-22T01:13:00.671Z,28.0
2023-03-22T01:14:00.560Z,27.0
2023-03-22T01:15:00.794Z,27.0
2023-03-22T01:16:00.546Z,27.0
2023-03-22T01:17:00.696Z,27.0
2023-03-22T01:18:00.587Z,27.0
2023-03-22T01:19:00.694Z,27.5
2023-03-22T01:20:00.709Z,27.5
2023-03-22T01:21:01.101Z,27.5
2023-03-22T01:22:01.570Z,27.5
2023-03-22T01:23:00.571Z,27.5
2023-03-22T01:24:00.565Z,26.8
2023-03-22T01:25:00.602Z,26.8
2023-03-22T01:26:00.946Z,26.8
2023-03-22T01:27:00.518Z,26.8
2023-03-22T01:28:00.681Z,26.8
2023-03-22T01:29:00.695Z,27.1
2023-03-22T01:30:00.713Z,27.1
2023-03-22T01:31:01.181Z,27.1
2023-03-22T01:32:00.625Z,27.1
2023-03-22T01:33:00.557Z,27.1
2023-03-22T01:34:00.635Z,27.0
2023-03-22T01:35:00.660Z,27.0
2023-03-22T01:36:00.604Z,27.0
2023-03-22T01:37:00.526Z,27.0
2023-03-22T01:38:00.592Z,27.0
2023-03-22T01:39:00.694Z,26.2
2023-03-22T01:40:00.553Z,26.2
2023-03-22T01:41:00.600Z,26.2
2023-03-22T01:42:02.385Z,26.2
2023-03-22T01:43:00.569Z,26.2
2023-03-22T01:44:10.255Z,26.7
2023-03-22T01:45:13.741Z,26.7
2023-03-22T01:46:00.647Z,26.7
2023-03-22T01:47:00.562Z,26.7
2023-03-22T01:48:07.896Z,26.7
2023-03-22T01:49:02.969Z,25.7
2023-03-22T01:50:00.829Z,25.7
2023-03-22T01:51:06.592Z,25.7
2023-03-22T01:52:06.297Z,25.7
2023-03-22T01:53:00.647Z,25.7
2023-03-22T01:54:04.772Z,26.2
2023-03-22T01:55:00.994Z,26.2
2023-03-22T01:56:01.422Z,26.2
2023-03-22T01:57:01.936Z,26.2
2023-03-22T01:58:02.124Z,26.2
2023-03-22T01:59:01.476Z,26.7
2023-03-22T02:00:00.571Z,26.7
2023-03-22T02:01:01.381Z,26.7
2023-03-22T02:02:01.339Z,26.7
2023-03-22T02:03:00.885Z,26.7
2023-03-22T02:04:07.107Z,26.0
2023-03-22T02:05:00.655Z,26.0
2023-03-22T02:06:00.558Z,26.0
2023-03-22T02:07:04.795Z,26.0
2023-03-22T02:08:00.954Z,26.0
2023-03-22T02:09:00.567Z,26.5
2023-03-22T02:10:00.873Z,26.5
2023-03-22T02:11:02.448Z,26.5
2023-03-22T02:12:15.607Z,26.5
2023-03-22T02:13:18.448Z,26.5
2023-03-22T02:14:17.928Z,25.5
2023-03-22T02:15:09.828Z,25.5
2023-03-22T02:16:20.484Z,25.5
2023-03-22T02:17:16.547Z,25.5
2023-03-22T02:18:20.446Z,25.5
2023-03-22T02:19:10.476Z,25.7
2023-03-22T02:20:20.446Z,25.7
2023-03-22T02:21:20.428Z,25.7
2023-03-22T02:22:10.481Z,25.7
2023-03-22T02:23:00.517Z,25.7
2023-03-22T02:24:20.422Z,26.8
2023-03-22T02:25:10.474Z,26.8
2023-03-22T02:26:20.480Z,26.8
2023-03-22T02:27:10.482Z,26.8
2023-03-22T02:28:09.115Z,26.8
2023-03-22T02:29:11.479Z,26.7
2023-03-22T02:30:11.473Z,26.7
2023-03-22T02:31:15.756Z,26.7
2023-03-22T02:32:13.774Z,26.7
2023-03-22T02:33:19.514Z,26.7
2023-03-22T02:34:20.426Z,26.8
2023-03-22T02:35:20.570Z,26.8
2023-03-22T02:36:19.724Z,26.8
2023-03-22T02:37:16.326Z,26.8
2023-03-22T02:38:13.181Z,26.8
2023-03-22T02:39:12.921Z,27.4
2023-03-22T02:40:11.112Z,27.4
2023-03-22T02:41:10.847Z,27.4
2023-03-22T02:42:08.785Z,27.4
2023-03-22T02:43:14.689Z,27.4
2023-03-22T02:44:10.136Z,26.8
2023-03-22T02:45:20.542Z,26.8
2023-03-22T02:46:08.810Z,26.8
2023-03-22T02:47:06.082Z,26.8
2023-03-22T02:48:08.443Z,26.8
2023-03-22T02:49:20.477Z,28.0
2023-03-22T02:50:07.944Z,28.0
2023-03-22T02:51:14.054Z,28.0
2023-03-22T02:52:08.875Z,28.0
2023-03-22T02:53:11.507Z,28.0
2023-03-22T02:54:05.125Z,27.2
2023-03-22T02:55:13.377Z,27.2
2023-03-22T02:56:06.450Z,27.2
2023-03-22T02:57:10.585Z,27.2
2023-03-22T02:58:09.500Z,27.2
2023-03-22T02:59:04.003Z,26.8
2023-03-22T03:00:02.860Z,26.8
2023-03-22T03:01:03.392Z,26.8
2023-03-22T03:02:02.420Z,26.8
2023-03-22T03:03:05.633Z,26.8
2023-03-22T03:04:04.930Z,28.0
2023-03-22T03:05:01.727Z,28.0
2023-03-22T03:06:05.970Z,28.0
2023-03-22T03:07:06.067Z,28.0
2023-03-22T03:08:01.666Z,28.0
2023-03-22T03:09:00.938Z,26.2
2023-03-22T03:10:01.590Z,26.2
2023-03-22T03:11:00.748Z,26.2
2023-03-22T03:12:00.567Z,26.2
2023-03-22T03:13:00.549Z,26.2
2023-03-22T03:14:00.605Z,27.2
2023-03-22T03:15:00.638Z,27.2
2023-03-22T03:16:03.896Z,27.2
2023-03-22T03:17:11.344Z,27.2
2023-03-22T03:18:10.042Z,27.2
2023-03-22T03:19:16.720Z,27.3
2023-03-22T03:20:20.479Z,27.3
2023-03-22T03:21:07.684Z,27.3
2023-03-22T03:22:12.031Z,27.3
2023-03-22T03:23:15.349Z,27.3
2023-03-22T03:24:13.167Z,27.0
2023-03-22T03:25:13.766Z,27.0
2023-03-22T03:26:20.452Z,27.0
2023-03-22T03:27:07.196Z,27.0
2023-03-22T03:28:08.621Z,27.0
2023-03-22T03:29:09.199Z,27.2
2023-03-22T03:30:08.560Z,27.2
2023-03-22T03:31:19.281Z,27.2
2023-03-22T03:32:08.921Z,27.2
2023-03-22T03:33:07.240Z,27.2
2023-03-22T03:34:12.156Z,27.0
2023-03-22T03:35:07.269Z,27.0
2023-03-22T03:36:07.212Z,27.0
2023-03-22T03:37:13.370Z,27.0
2023-03-22T03:38:07.909Z,27.0
2023-03-22T03:39:02.384Z,26.9
2023-03-22T03:40:09.007Z,26.9
2023-03-22T03:41:05.473Z,26.9
2023-03-22T03:42:02.488Z,26.9
2023-03-22T03:43:03.374Z,26.9
2023-03-22T03:44:02.655Z,27.0
2023-03-22T03:45:00.691Z,27.0
2023-03-22T03:46:01.008Z,27.0
2023-03-22T03:47:01.058Z,27.0
2023-03-22T03:48:05.304Z,27.0
2023-03-22T03:49:03.499Z,26.0
2023-03-22T03:50:01.273Z,26.0
2023-03-22T03:51:01.421Z,26.0
2023-03-22T03:52:02.565Z,26.0
2023-03-22T03:53:00.546Z,26.0
2023-03-22T03:54:00.548Z,27.1
2023-03-22T03:55:00.667Z,27.1
2023-03-22T03:56:00.583Z,27.1
2023-03-22T03:57:02.222Z,27.1
2023-03-22T03:58:00.762Z,27.1
2023-03-22T03:59:00.530Z,27.0
2023-03-22T04:00:00.571Z,27.0
2023-03-22T04:01:00.597Z,27.0
2023-03-22T04:02:00.635Z,27.0
2023-03-22T04:03:00.991Z,27.0
2023-03-22T04:04:00.828Z,26.2
2023-03-22T04:05:00.695Z,26.2
2023-03-22T04:06:00.771Z,26.2
2023-03-22T04:07:03.521Z,26.2
2023-03-22T04:08:00.765Z,26.2
2023-03-22T04:09:00.552Z,26.9
2023-03-22T04:10:00.659Z,26.9
2023-03-22T04:11:00.573Z,26.9
2023-03-22T04:12:00.615Z,26.9
2023-03-22T04:13:00.576Z,26.9
2023-03-22T04:14:00.626Z,27.3
2023-03-22T04:15:00.697Z,27.3
2023-03-22T04:16:00.535Z,27.3
2023-03-22T04:17:00.745Z,27.3
2023-03-22T04:18:00.549Z,27.3
2023-03-22T04:19:00.641Z,27.8
2023-03-22T04:20:00.600Z,27.8
2023-03-22T04:21:00.541Z,27.8
2023-03-22T04:22:01.049Z,27.8
2023-03-22T04:23:00.564Z,27.8
2023-03-22T04:24:00.602Z,27.9
2023-03-22T04:25:00.548Z,27.9
2023-03-22T04:26:00.562Z,27.9
2023-03-22T04:27:00.527Z,27.9
2023-03-22T04:28:00.619Z,27.9
2023-03-22T04:29:00.941Z,28.6
2023-03-22T04:30:00.543Z,28.6
2023-03-22T04:31:00.612Z,28.6
2023-03-22T04:32:01.727Z,28.6
2023-03-22T04:33:03.686Z,28.6
2023-03-22T04:34:00.564Z,28.6
2023-03-22T04:35:00.558Z,28.6
2023-03-22T04:36:02.507Z,28.6
2023-03-22T04:37:00.527Z,28.6
2023-03-22T04:38:00.594Z,28.6
2023-03-22T04:39:03.091Z,28.6
2023-03-22T04:40:00.722Z,28.6
2023-03-22T04:41:00.549Z,28.6
2023-03-22T04:42:00.536Z,28.6
2023-03-22T04:43:00.547Z,28.6
2023-03-22T04:44:00.624Z,28.1
2023-03-22T04:45:01.399Z,28.1
2023-03-22T04:46:00.802Z,28.1
2023-03-22T04:47:00.569Z,28.1
2023-03-22T04:48:00.595Z,28.1
2023-03-22T04:49:00.914Z,27.2
2023-03-22T04:50:00.554Z,27.2
2023-03-22T04:51:00.517Z,27.2
2023-03-22T04:52:00.626Z,27.2
2023-03-22T04:53:00.551Z,27.2
2023-03-22T04:54:00.673Z,28.7
2023-03-22T04:55:00.732Z,28.7
2023-03-22T04:56:00.520Z,28.7
2023-03-22T04:57:00.667Z,28.7
2023-03-22T04:58:00.639Z,28.7
2023-03-22T04:59:00.694Z,29.7
2023-03-22T05:00:00.543Z,29.7
2023-03-22T05:01:01.073Z,29.7
2023-03-22T05:02:00.591Z,29.7
2023-03-22T05:03:00.595Z,29.7
2023-03-22T05:04:00.588Z,29.2
2023-03-22T05:05:00.562Z,29.2
2023-03-22T05:06:01.475Z,29.2
2023-03-22T05:07:00.561Z,29.2
2023-03-22T05:08:00.576Z,29.2
2023-03-22T05:09:00.559Z,28.3
2023-03-22T05:10:00.606Z,28.3
2023-03-22T05:11:07.804Z,28.3
2023-03-22T05:12:00.556Z,28.3
2023-03-22T05:13:00.542Z,28.3
2023-03-22T05:14:01.121Z,29.5
2023-03-22T05:15:00.557Z,29.5
2023-03-22T05:16:00.796Z,29.5
2023-03-22T05:17:00.600Z,29.5
2023-03-22T05:18:00.551Z,29.5
2023-03-22T05:19:01.196Z,28.8
2023-03-22T05:20:00.574Z,28.8
2023-03-22T05:21:00.562Z,28.8
2023-03-22T05:22:00.605Z,28.8
2023-03-22T05:23:00.601Z,28.8
2023-03-22T05:24:00.526Z,29.1
2023-03-22T05:25:00.581Z,29.1
2023-03-22T05:26:00.520Z,29.1
2023-03-22T05:27:00.557Z,29.1
2023-03-22T05:28:01.434Z,29.1
2023-03-22T05:29:00.540Z,30.1
2023-03-22T05:30:00.879Z,30.1
2023-03-22T05:31:00.833Z,30.1
2023-03-22T05:32:00.521Z,30.1
2023-03-22T05:33:02.369Z,30.1
2023-03-22T05:34:00.526Z,29.3
2023-03-22T05:35:00.539Z,29.3
2023-03-22T05:36:00.753Z,29.3
2023-03-22T05:37:01.289Z,29.3
2023-03-22T05:38:00.600Z,29.3
2023-03-22T05:39:00.571Z,29.5
2023-03-22T05:40:01.355Z,29.5
2023-03-22T05:41:00.536Z,29.5
2023-03-22T05:42:00.577Z,29.5
2023-03-22T05:43:00.572Z,29.5
2023-03-22T05:44:00.568Z,29.4
2023-03-22T05:45:00.804Z,29.4
2023-03-22T05:46:03.297Z,29.4
2023-03-22T05:47:00.673Z,29.4
2023-03-22T05:48:00.544Z,29.4
2023-03-22T05:49:00.526Z,30.1
2023-03-22T05:50:00.561Z,30.1
2023-03-22T05:51:00.841Z,30.1
2023-03-22T05:52:00.594Z,30.1
2023-03-22T05:53:00.946Z,30.1
2023-03-22T05:54:00.521Z,30.2
2023-03-22T05:55:00.715Z,30.2
2023-03-22T05:56:00.554Z,30.2
2023-03-22T05:57:00.548Z,30.2
2023-03-22T05:58:00.530Z,30.2
2023-03-22T05:59:02.272Z,29.5
2023-03-22T06:00:00.555Z,29.5
2023-03-22T06:01:05.345Z,29.5
2023-03-22T06:02:00.749Z,29.5
2023-03-22T06:03:00.622Z,29.5
2023-03-22T06:04:00.578Z,29.5
2023-03-22T06:05:00.551Z,29.5
2023-03-22T06:06:00.540Z,29.5
2023-03-22T06:07:00.539Z,29.5
2023-03-22T06:08:00.839Z,29.5
2023-03-22T06:09:14.066Z,29.0
2023-03-22T06:10:00.850Z,29.0
2023-03-22T06:11:00.543Z,29.0
2023-03-22T06:12:00.555Z,29.0
2023-03-22T06:13:00.590Z,29.0
2023-03-22T06:14:00.571Z,29.0
2023-03-22T06:15:00.672Z,29.0
2023-03-22T06:16:02.675Z,29.0
2023-03-22T06:17:00.640Z,29.0
2023-03-22T06:18:00.565Z,29.0
2023-03-22T06:19:00.556Z,29.3
2023-03-22T06:20:00.580Z,29.3
2023-03-22T06:21:00.827Z,29.3
2023-03-22T06:22:00.546Z,29.3
2023-03-22T06:23:01.200Z,29.3
2023-03-22T06:24:00.558Z,28.2
2023-03-22T06:25:00.869Z,28.2
2023-03-22T06:26:00.581Z,28.2
2023-03-22T06:27:00.644Z,28.2
2023-03-22T06:28:00.837Z,28.2
2023-03-22T06:29:00.532Z,28.3
2023-03-22T06:30:00.635Z,28.3
2023-03-22T06:31:05.121Z,28.3
2023-03-22T06:32:01.444Z,28.3
2023-03-22T06:33:00.584Z,28.3
2023-03-22T06:34:00.733Z,27.0
2023-03-22T06:35:00.554Z,27.0
2023-03-22T06:36:01.216Z,27.0
2023-03-22T06:37:00.640Z,27.0
2023-03-22T06:38:00.732Z,26.4
2023-03-22T06:39:00.594Z,26.4
2023-03-22T06:40:00.593Z,26.4
2023-03-22T06:41:00.544Z,26.4
2023-03-22T06:42:00.516Z,26.4
2023-03-22T06:43:03.970Z,25.8
2023-03-22T06:44:00.652Z,25.8
2023-03-22T06:45:00.550Z,25.8
2023-03-22T06:46:00.577Z,25.8
2023-03-22T06:47:00.806Z,25.8
2023-03-22T06:48:00.803Z,24.3
2023-03-22T06:49:00.556Z,24.3
2023-03-22T06:50:00.553Z,24.3
2023-03-22T06:51:00.612Z,24.3
2023-03-22T06:52:00.550Z,24.3
2023-03-22T06:53:00.635Z,22.9
2023-03-22T06:54:00.588Z,22.9
2023-03-22T06:55:00.655Z,22.9
2023-03-22T06:56:00.558Z,22.9
2023-03-22T06:57:00.550Z,22.9
2023-03-22T06:58:01.155Z,22.5
2023-03-22T06:59:00.516Z,22.5
2023-03-22T07:00:00.812Z,22.5
2023-03-22T07:01:00.580Z,22.5
2023-03-22T07:02:00.548Z,22.5
2023-03-22T07:03:00.622Z,22.4
2023-03-22T07:04:00.789Z,22.4
2023-03-22T07:05:00.650Z,22.4
2023-03-22T07:06:02.443Z,22.4
2023-03-22T07:07:00.551Z,22.4
2023-03-22T07:08:00.641Z,23.8
2023-03-22T07:09:00.803Z,23.8
2023-03-22T07:10:00.536Z,23.8
2023-03-22T07:11:00.565Z,23.8
2023-03-22T07:12:00.581Z,23.8
2023-03-22T07:13:00.574Z,22.9
2023-03-22T07:14:00.567Z,22.9
2023-03-22T07:15:01.179Z,22.9
2023-03-22T07:16:01.265Z,22.9
2023-03-22T07:17:00.567Z,22.9
2023-03-22T07:18:01.172Z,24.0
2023-03-22T07:19:00.549Z,24.0
2023-03-22T07:20:00.550Z,24.0
2023-03-22T07:21:00.515Z,24.0
2023-03-22T07:22:00.557Z,24.0
2023-03-22T07:23:00.532Z,23.2
2023-03-22T07:24:00.555Z,23.2
2023-03-22T07:25:01.809Z,23.2
2023-03-22T07:26:00.583Z,23.2
2023-03-22T07:27:00.637Z,23.2
2023-03-22T07:28:00.571Z,23.6
2023-03-22T07:29:00.521Z,23.6
2023-03-22T07:30:01.361Z,23.6
2023-03-22T07:31:03.136Z,23.6
2023-03-22T07:32:00.664Z,23.6
2023-03-22T07:33:00.692Z,23.0
2023-03-22T07:34:01.133Z,23.0
2023-03-22T07:35:00.563Z,23.0
2023-03-22T07:36:00.751Z,23.0
2023-03-22T07:37:00.567Z,23.0
2023-03-22T07:38:00.541Z,22.4
2023-03-22T07:39:00.949Z,22.4
2023-03-22T07:40:00.599Z,22.4
2023-03-22T07:41:00.709Z,22.4
2023-03-22T07:42:00.577Z,22.4
2023-03-22T07:43:00.531Z,21.4
2023-03-22T07:44:16.709Z,21.4
2023-03-22T07:45:00.658Z,21.4
2023-03-22T07:46:00.531Z,21.4
2023-03-22T07:47:01.202Z,21.4
2023-03-22T07:48:00.593Z,21.9
2023-03-22T07:49:00.768Z,21.9
2023-03-22T07:50:00.563Z,21.9
2023-03-22T07:51:00.539Z,21.9
2023-03-22T07:52:00.583Z,21.9
2023-03-22T07:53:00.589Z,22.4
2023-03-22T07:54:01.180Z,22.4
2023-03-22T07:55:00.678Z,22.4
2023-03-22T07:56:00.532Z,22.4
2023-03-22T07:57:00.959Z,22.4
2023-03-22T07:58:01.312Z,22.2
2023-03-22T07:59:00.786Z,22.2
2023-03-22T08:00:00.785Z,22.2
2023-03-22T08:01:05.397Z,22.2
2023-03-22T08:02:00.604Z,22.2
2023-03-22T08:03:00.967Z,23.9
2023-03-22T08:04:00.548Z,23.9
2023-03-22T08:05:00.572Z,23.9
2023-03-22T08:06:01.768Z,23.9
2023-03-22T08:07:00.561Z,23.9
2023-03-22T08:08:00.564Z,22.0
2023-03-22T08:09:00.556Z,22.0
2023-03-22T08:10:00.819Z,22.0
2023-03-22T08:11:00.560Z,22.0
2023-03-22T08:12:00.632Z,22.0
2023-03-22T08:13:00.625Z,21.4
2023-03-22T08:14:00.663Z,21.4
2023-03-22T08:15:00.587Z,21.4
2023-03-22T08:16:00.741Z,21.4
2023-03-22T08:17:00.549Z,21.4
2023-03-22T08:18:00.560Z,21.9
2023-03-22T08:19:00.594Z,21.9
2023-03-22T08:20:00.851Z,21.9
2023-03-22T08:21:00.591Z,21.9
2023-03-22T08:22:00.807Z,21.9
2023-03-22T08:23:00.575Z,20.9
2023-03-22T08:24:00.571Z,20.9
2023-03-22T08:25:00.673Z,20.9
2023-03-22T08:26:00.613Z,20.9
2023-03-22T08:27:00.585Z,20.9
2023-03-22T08:28:00.617Z,22.1
2023-03-22T08:29:00.870Z,22.1
2023-03-22T08:30:00.906Z,22.1
2023-03-22T08:31:00.704Z,22.1
2023-03-22T08:32:00.636Z,22.1
2023-03-22T08:33:00.537Z,19.5
2023-03-22T08:34:00.569Z,19.5
2023-03-22T08:35:00.551Z,19.5
2023-03-22T08:36:07.572Z,19.5
2023-03-22T08:37:02.798Z,19.5
2023-03-22T08:38:00.629Z,19.6
2023-03-22T08:39:00.589Z,19.6
2023-03-22T08:40:00.622Z,19.6
2023-03-22T08:41:00.522Z,19.6
2023-03-22T08:42:00.601Z,19.6
2023-03-22T08:43:00.547Z,18.8
2023-03-22T08:44:00.583Z,18.8
2023-03-22T08:45:00.728Z,18.8
2023-03-22T08:46:00.727Z,18.8
2023-03-22T08:47:02.198Z,18.8
2023-03-22T08:48:00.597Z,19.1
2023-03-22T08:49:00.525Z,19.1
2023-03-22T08:50:00.645Z,19.1
2023-03-22T08:51:01.147Z,19.1
2023-03-22T08:52:00.602Z,19.1
2023-03-22T08:53:00.570Z,19.4
2023-03-22T08:54:00.937Z,19.4
2023-03-22T08:55:00.674Z,19.4
2023-03-22T08:56:00.563Z,19.4
2023-03-22T08:57:00.633Z,19.4
2023-03-22T08:58:00.826Z,19.5
2023-03-22T08:59:00.550Z,19.5
2023-03-22T09:00:00.574Z,19.5
2023-03-22T09:01:01.070Z,19.5
2023-03-22T09:02:00.752Z,19.5
2023-03-22T09:03:00.579Z,19.8
2023-03-22T09:04:00.946Z,19.8
2023-03-22T09:05:00.543Z,19.8
2023-03-22T09:06:00.557Z,19.8
2023-03-22T09:07:00.547Z,19.8
2023-03-22T09:08:05.914Z,18.6
2023-03-22T09:09:00.552Z,18.6
2023-03-22T09:10:00.588Z,18.6
2023-03-22T09:11:00.595Z,18.6
2023-03-22T09:12:00.664Z,18.6
2023-03-22T09:13:00.534Z,17.5
2023-03-22T09:14:00.563Z,17.5
2023-03-22T09:15:00.638Z,17.5
2023-03-22T09:16:00.769Z,17.5
2023-03-22T09:17:00.863Z,17.5
2023-03-22T09:18:00.577Z,17.3
2023-03-22T09:19:00.660Z,17.3
2023-03-22T09:20:11.957Z,17.3
2023-03-22T09:21:00.700Z,17.3
2023-03-22T09:22:00.651Z,17.3
2023-03-22T09:23:00.582Z,17.3
2023-03-22T09:24:00.551Z,17.3
2023-03-22T09:25:00.856Z,17.3
2023-03-22T09:26:02.304Z,17.3
2023-03-22T09:27:00.603Z,17.3
2023-03-22T09:28:00.873Z,17.5
2023-03-22T09:29:00.572Z,17.5
2023-03-22T09:30:00.660Z,17.5
2023-03-22T09:31:02.254Z,17.5
2023-03-22T09:32:00.719Z,17.5
2023-03-22T09:33:00.547Z,16.8
2023-03-22T09:34:00.571Z,16.8
2023-03-22T09:35:00.564Z,16.8
2023-03-22T09:36:00.734Z,16.8
2023-03-22T09:37:00.665Z,16.8
2023-03-22T09:38:00.584Z,16.2
2023-03-22T09:39:00.607Z,16.2
2023-03-22T09:40:00.581Z,16.2
2023-03-22T09:41:05.293Z,16.2
2023-03-22T09:42:04.302Z,16.2
2023-03-22T09:43:04.991Z,17.7
2023-03-22T09:44:04.299Z,17.7
2023-03-22T09:45:02.907Z,17.7
2023-03-22T09:46:02.227Z,17.7
2023-03-22T09:47:03.944Z,17.7
2023-03-22T09:48:05.083Z,16.2
2023-03-22T09:49:04.569Z,16.2
2023-03-22T09:50:06.039Z,16.2
2023-03-22T09:51:02.998Z,16.2
2023-03-22T09:52:01.247Z,16.2
2023-03-22T09:53:00.580Z,13.9
2023-03-22T09:54:01.096Z,13.9
2023-03-22T09:55:01.762Z,13.9
2023-03-22T09:56:16.645Z,13.9
2023-03-22T09:57:06.823Z,13.9
2023-03-22T09:58:17.933Z,13.2
2023-03-22T09:59:07.068Z,13.2
2023-03-22T10:00:20.592Z,13.2
2023-03-22T10:01:10.687Z,13.2
2023-03-22T10:02:10.251Z,13.2
2023-03-22T10:03:17.949Z,12.0
2023-03-22T10:04:09.433Z,12.0
2023-03-22T10:05:10.651Z,12.0
2023-03-22T10:06:05.477Z,12.0
2023-03-22T10:07:17.545Z,12.0
2023-03-22T10:08:13.740Z,10.6
2023-03-22T10:09:17.194Z,10.6
2023-03-22T10:10:13.768Z,10.6
2023-03-22T10:11:00.829Z,10.6
2023-03-22T10:12:14.655Z,10.6
2023-03-22T10:13:10.098Z,13.1
2023-03-22T10:14:17.379Z,13.1
2023-03-22T10:15:09.434Z,13.1
2023-03-22T10:16:02.963Z,13.1
2023-03-22T10:17:05.418Z,13.1
2023-03-22T10:18:05.328Z,12.2
2023-03-22T10:19:20.496Z,12.2
2023-03-22T10:20:05.881Z,12.2
2023-03-22T10:21:03.185Z,12.2
2023-03-22T10:22:02.399Z,12.2
2023-03-22T10:23:02.909Z,13.5
2023-03-22T10:24:13.370Z,13.5
2023-03-22T10:25:01.658Z,13.5
2023-03-22T10:26:02.417Z,13.5
2023-03-22T10:27:01.381Z,13.5
2023-03-22T10:28:01.238Z,12.3
2023-03-22T10:29:04.195Z,12.3
2023-03-22T10:30:15.756Z,12.3
2023-03-22T10:31:00.856Z,12.3
2023-03-22T10:32:12.841Z,12.3
2023-03-22T10:33:03.874Z,12.9
2023-03-22T10:34:05.419Z,12.9
2023-03-22T10:35:00.615Z,12.9
2023-03-22T10:36:03.064Z,12.9
2023-03-22T10:37:04.790Z,12.9
2023-03-22T10:38:03.731Z,13.1
2023-03-22T10:39:09.322Z,13.1
2023-03-22T10:40:03.884Z,13.1
2023-03-22T10:41:01.360Z,13.1
2023-03-22T10:42:04.898Z,13.1
2023-03-22T10:43:18.576Z,11.5
2023-03-22T10:44:03.967Z,11.5
2023-03-22T10:45:02.608Z,11.5
2023-03-22T10:46:03.449Z,11.5
2023-03-22T10:47:02.573Z,11.5
2023-03-22T10:48:08.439Z,11.1
2023-03-22T10:49:02.528Z,11.1
2023-03-22T10:50:05.930Z,11.1
2023-03-22T10:51:01.330Z,11.1
2023-03-22T10:52:06.413Z,11.1
2023-03-22T10:53:10.547Z,11.7
2023-03-22T10:54:00.826Z,11.7
2023-03-22T10:55:04.455Z,11.7
2023-03-22T10:56:00.791Z,11.7
2023-03-22T10:57:00.556Z,11.7
2023-03-22T10:58:13.235Z,11.7
2023-03-22T10:59:00.568Z,11.7
2023-03-22T11:00:03.683Z,11.7
2023-03-22T11:01:06.410Z,11.7
2023-03-22T11:02:00.731Z,11.7
2023-03-22T11:03:00.660Z,12.3
2023-03-22T11:04:11.908Z,12.3
2023-03-22T11:05:03.607Z,12.3
2023-03-22T11:06:06.166Z,12.3
2023-03-22T11:07:00.589Z,12.3
2023-03-22T11:08:02.099Z,12.3
2023-03-22T11:09:12.503Z,12.3
2023-03-22T11:10:07.952Z,12.3
2023-03-22T11:11:05.623Z,12.3
2023-03-22T11:12:02.487Z,12.3
2023-03-22T11:13:12.047Z,12.6
2023-03-22T11:14:06.813Z,12.6
2023-03-22T11:15:01.317Z,12.6
2023-03-22T11:16:01.888Z,12.6
2023-03-22T11:17:08.426Z,12.6
2023-03-22T11:18:10.369Z,13.6
2023-03-22T11:19:00.849Z,13.6
2023-03-22T11:20:05.650Z,13.6
2023-03-22T11:21:08.613Z,13.6
2023-03-22T11:22:04.964Z,13.6
2023-03-22T11:23:03.719Z,13.7
2023-03-22T11:24:04.373Z,13.7
2023-03-22T11:25:02.768Z,13.7
2023-03-22T11:26:08.747Z,13.7
2023-03-22T11:27:03.273Z,13.7
2023-03-22T11:28:03.788Z,13.0
2023-03-22T11:29:05.592Z,13.0
2023-03-22T11:30:19.734Z,13.0
2023-03-22T11:31:10.162Z,13.0
2023-03-22T11:32:00.675Z,13.0
2023-03-22T11:33:00.583Z,13.4
2023-03-22T11:34:01.053Z,13.4
2023-03-22T11:35:13.061Z,13.4
2023-03-22T11:36:12.647Z,13.4
2023-03-22T11:37:00.580Z,13.4
2023-03-22T11:38:00.559Z,13.8
2023-03-22T11:39:05.958Z,13.8
2023-03-22T11:40:01.303Z,13.8
2023-03-22T11:41:04.082Z,13.8
2023-03-22T11:42:04.460Z,13.8
2023-03-22T11:43:16.010Z,13.6
2023-03-22T11:44:04.410Z,13.6
2023-03-22T11:45:00.981Z,13.6
2023-03-22T11:46:01.651Z,13.6
2023-03-22T11:47:03.125Z,13.6
2023-03-22T11:48:04.831Z,13.8
2023-03-22T11:49:05.921Z,13.8
2023-03-22T11:50:02.972Z,13.8
2023-03-22T11:51:09.089Z,13.8
2023-03-22T11:52:07.461Z,13.8
2023-03-22T11:53:01.801Z,13.6
2023-03-22T11:54:08.121Z,13.6
2023-03-22T11:55:00.861Z,13.6
2023-03-22T11:56:01.896Z,13.6
2023-03-22T11:57:04.538Z,13.6
2023-03-22T11:58:03.672Z,13.4
2023-03-22T11:59:06.574Z,13.4
2023-03-22T12:00:06.544Z,13.4
2023-03-22T12:01:01.733Z,13.4
2023-03-22T12:02:11.579Z,13.4
2023-03-22T12:03:04.742Z,13.6
2023-03-22T12:04:04.666Z,13.6
2023-03-22T12:05:11.279Z,13.6
2023-03-22T12:06:03.145Z,13.6
2023-03-22T12:07:09.593Z,13.6
2023-03-22T12:08:15.016Z,13.4
2023-03-22T12:09:17.239Z,13.4
2023-03-22T12:10:06.299Z,13.4
2023-03-22T12:11:06.457Z,13.4
2023-03-22T12:12:02.570Z,13.4
2023-03-22T12:13:05.851Z,12.9
2023-03-22T12:14:20.433Z,12.9
2023-03-22T12:15:06.973Z,12.9
2023-03-22T12:16:04.383Z,12.9
2023-03-22T12:17:09.407Z,12.9
2023-03-22T12:18:07.823Z,11.7
2023-03-22T12:19:20.450Z,11.7
2023-03-22T12:20:13.823Z,11.7
2023-03-22T12:21:00.724Z,11.7
2023-03-22T12:22:00.573Z,11.7
2023-03-22T12:23:01.026Z,10.4
2023-03-22T12:24:02.261Z,10.4
2023-03-22T12:25:00.930Z,10.4
2023-03-22T12:26:06.006Z,10.4
2023-03-22T12:27:20.196Z,10.4
2023-03-22T12:28:06.894Z,10.6
2023-03-22T12:29:04.854Z,10.6
2023-03-22T12:30:11.156Z,10.6
2023-03-22T12:31:01.562Z,10.6
2023-03-22T12:32:08.061Z,10.6
2023-03-22T12:33:05.474Z,10.2
2023-03-22T12:34:06.098Z,10.2
2023-03-22T12:35:16.489Z,10.2
2023-03-22T12:36:02.739Z,10.2
2023-03-22T12:37:03.931Z,10.2
2023-03-22T12:38:11.126Z,10.8
2023-03-22T12:39:04.696Z,10.8
2023-03-22T12:40:07.465Z,10.8
2023-03-22T12:41:03.772Z,10.8
2023-03-22T12:42:09.213Z,10.8
2023-03-22T12:43:14.673Z,10.6
2023-03-22T12:44:02.587Z,10.6
2023-03-22T12:45:06.030Z,10.6
2023-03-22T12:46:03.685Z,10.6
2023-03-22T12:47:06.447Z,10.6
2023-03-22T12:48:14.041Z,9.3
2023-03-22T12:49:10.234Z,9.3
2023-03-22T12:50:04.986Z,9.3
2023-03-22T12:51:04.831Z,9.3
2023-03-22T12:52:13.947Z,9.3
2023-03-22T12:53:01.415Z,9.5
2023-03-22T12:54:01.406Z,9.5
2023-03-22T12:55:02.321Z,9.5
2023-03-22T12:56:01.460Z,9.5
2023-03-22T12:57:00.843Z,9.5
2023-03-22T12:58:03.931Z,9.6
2023-03-22T12:59:03.519Z,9.6
2023-03-22T13:00:06.257Z,9.6
2023-03-22T13:01:18.363Z,9.6
2023-03-22T13:02:15.568Z,9.6
2023-03-22T13:03:09.258Z,8.0
2023-03-22T13:04:20.540Z,8.0
2023-03-22T13:05:06.356Z,8.0
2023-03-22T13:06:15.612Z,8.0
2023-03-22T13:07:17.991Z,8.0
2023-03-22T13:08:01.108Z,7.9
2023-03-22T13:09:09.274Z,7.9
2023-03-22T13:10:20.443Z,7.9
2023-03-22T13:11:03.691Z,7.9
2023-03-22T13:12:18.104Z,7.9
2023-03-22T13:13:11.527Z,8.1
2023-03-22T13:14:00.908Z,8.1
2023-03-22T13:15:12.147Z,8.1
2023-03-22T13:16:10.490Z,8.1
2023-03-22T13:17:00.654Z,8.1
2023-03-22T13:18:01.539Z,7.4
2023-03-22T13:19:01.768Z,7.4